K4MR

Melrose Gunnery Range Airport

New Mexico, USA
METAR K4MR 202258Z AUTO 12007KT 10SM CLR 27/15 A3018 RMK AO2 SLP164 T02690148 $
Observed Flight Rules
Aug-20 @ 22:58 UTC (an hour ago) Visual Flight Rules
Wind Visibility Clouds
120° at 7 knots 10 miles
  • Clear skies
Temperatures Readings
Current 27°C / 81°F
Dewpoint 15°C / 59°F
Humidity 48%
Altimeter 30.18" Hg
Pressure 1016.4 hPa
Elevation 1326
METAR K4MR 202258Z AUTO 12007KT 10SM CLR 27/15 A3018 RMK AO2 SLP164 T02690148 $
Observed Flight Rules
Aug-20 @ 22:58 UTC
(an hour ago)
VFR
Wind Visibility
120° at 7 knots 10 miles
Clouds
  • Clear skies
Temperature Dewpoint
27°C / 81°F 15°C / 59°F
Humidity Altimeter Pressure
48% 30.18" Hg 1016.4 hPa